createdAt,value
2023-03-24T00:01:18.314Z,2.67
2023-03-24T00:04:21.575Z,2.85
2023-03-24T00:07:25.326Z,2.95
2023-03-24T00:10:30.463Z,3.08
2023-03-24T00:13:38.369Z,2.90
2023-03-24T00:16:43.188Z,2.78
2023-03-24T00:19:47.603Z,2.90
2023-03-24T00:22:57.033Z,3.20
2023-03-24T00:26:02.703Z,3.17
2023-03-24T00:29:06.104Z,3.25
2023-03-24T00:32:08.419Z,3.15
2023-03-24T00:35:12.810Z,2.83
2023-03-24T00:38:14.356Z,3.03
2023-03-24T00:41:19.921Z,3.00
2023-03-24T00:44:21.871Z,3.22
2023-03-24T00:47:26.104Z,2.90
2023-03-24T00:53:30.030Z,3.30
2023-03-24T00:56:33.772Z,3.38
2023-03-24T00:59:42.417Z,3.22
2023-03-24T01:02:46.462Z,3.25
2023-03-24T01:05:48.655Z,2.80
2023-03-24T01:08:53.780Z,3.17
2023-03-24T01:11:56.132Z,2.78
2023-03-24T01:15:00.046Z,2.90
2023-03-24T01:18:02.327Z,3.15
2023-03-24T01:21:04.126Z,2.45
2023-03-24T01:24:06.266Z,2.70
2023-03-24T01:27:07.898Z,3.05
2023-03-24T01:30:13.854Z,3.42
2023-03-24T01:33:15.704Z,3.53
2023-03-24T01:36:17.339Z,3.80
2023-03-24T01:39:18.992Z,3.42
2023-03-24T01:42:23.970Z,3.58
2023-03-24T01:45:53.213Z,3.40
2023-03-24T01:48:54.728Z,2.75
2023-03-24T01:52:00.964Z,2.55
2023-03-24T01:55:08.385Z,2.65
2023-03-24T01:58:10.251Z,3.28
2023-03-24T02:01:29.872Z,3.60
2023-03-24T02:04:48.540Z,2.90
2023-03-24T02:08:01.561Z,2.70
2023-03-24T02:11:03.504Z,2.80
2023-03-24T02:14:14.242Z,3.22
2023-03-24T02:18:13.424Z,2.63
2023-03-24T02:21:40.401Z,2.90
2023-03-24T02:25:01.803Z,1.95
2023-03-24T02:28:15.548Z,2.40
2023-03-24T02:31:24.785Z,2.42
2023-03-24T02:34:26.408Z,2.63
2023-03-24T02:37:45.826Z,2.00
2023-03-24T02:40:57.627Z,2.10
2023-03-24T02:44:01.722Z,2.47
2023-03-24T02:47:15.333Z,2.78
2023-03-24T02:50:41.941Z,2.35
2023-03-24T02:54:02.116Z,2.58
2023-03-24T02:57:16.746Z,2.30
2023-03-24T03:00:59.494Z,2.58
2023-03-24T03:04:22.276Z,2.60
2023-03-24T03:07:27.375Z,2.67
2023-03-24T03:10:42.541Z,2.50
2023-03-24T03:14:02.329Z,2.67
2023-03-24T03:17:18.732Z,2.50
2023-03-24T03:20:24.792Z,2.63
2023-03-24T03:23:35.448Z,2.55
2023-03-24T03:26:37.197Z,2.50
2023-03-24T03:29:41.895Z,3.30
2023-03-24T03:32:54.466Z,2.75
2023-03-24T03:36:17.155Z,3.08
2023-03-24T03:39:27.700Z,2.20
2023-03-24T03:42:31.817Z,2.45
2023-03-24T03:45:36.772Z,2.35
2023-03-24T03:48:39.921Z,2.40
2023-03-24T03:51:41.585Z,2.55
2023-03-24T03:54:44.253Z,2.30
2023-03-24T03:57:46.484Z,2.78
2023-03-24T04:00:56.542Z,2.50
2023-03-24T04:04:34.007Z,2.80
2023-03-24T04:11:46.241Z,2.90
2023-03-24T04:15:33.156Z,3.53
2023-03-24T04:19:12.655Z,3.95
2023-03-24T04:22:14.306Z,5.18
2023-03-24T04:25:22.667Z,4.10
2023-03-24T04:28:38.541Z,5.25
2023-03-24T04:31:44.891Z,4.93
2023-03-24T04:34:54.858Z,5.90
2023-03-24T04:38:18.329Z,5.30
2023-03-24T04:41:28.280Z,5.00
2023-03-24T04:44:41.782Z,5.18
2023-03-24T04:48:08.645Z,5.50
2023-03-24T04:51:19.892Z,6.45
2023-03-24T04:54:35.778Z,5.57
2023-03-24T04:57:40.566Z,6.20
2023-03-24T05:00:44.174Z,6.15
2023-03-24T05:03:46.004Z,6.30
2023-03-24T05:06:49.666Z,6.03
2023-03-24T05:09:54.153Z,6.05
2023-03-24T05:12:56.323Z,5.65
2023-03-24T05:16:16.444Z,6.00
2023-03-24T05:19:26.875Z,5.78
2023-03-24T05:22:28.535Z,5.65
2023-03-24T05:25:30.311Z,6.60
2023-03-24T05:28:32.060Z,6.13
2023-03-24T05:31:33.811Z,6.63
2023-03-24T05:34:43.299Z,6.68
2023-03-24T05:40:48.846Z,6.22
2023-03-24T05:43:52.727Z,6.30
2023-03-24T05:46:54.796Z,6.35
2023-03-24T05:49:56.558Z,6.55
2023-03-24T05:52:58.215Z,6.43
2023-03-24T05:56:18.414Z,6.40
2023-03-24T05:59:46.175Z,6.65
2023-03-24T06:03:14.250Z,6.28
2023-03-24T06:06:20.618Z,5.57
2023-03-24T06:09:22.180Z,6.97
2023-03-24T06:12:24.140Z,6.15
2023-03-24T06:15:39.600Z,7.00
2023-03-24T06:18:54.385Z,6.82
2023-03-24T06:25:21.563Z,7.20
2023-03-24T06:28:43.496Z,7.68
2023-03-24T06:31:50.065Z,7.65
2023-03-24T06:34:52.848Z,7.65
2023-03-24T06:38:14.387Z,8.75
2023-03-24T06:41:16.801Z,8.13
2023-03-24T06:44:18.579Z,8.80
2023-03-24T06:47:20.480Z,7.63
2023-03-24T06:50:23.311Z,8.13
2023-03-24T06:53:25.003Z,8.65
2023-03-24T06:56:27.369Z,9.52
2023-03-24T06:59:32.834Z,8.18
2023-03-24T07:02:35.832Z,6.30
2023-03-24T07:05:39.119Z,6.78
2023-03-24T07:08:40.812Z,7.32
2023-03-24T07:11:43.012Z,6.78
2023-03-24T07:14:44.548Z,5.60
2023-03-24T07:17:47.219Z,5.07
2023-03-24T07:21:12.286Z,5.20
2023-03-24T07:24:13.926Z,4.80
2023-03-24T07:27:34.153Z,4.10
2023-03-24T07:30:40.638Z,5.18
2023-03-24T07:33:43.478Z,4.60
2023-03-24T07:36:44.969Z,5.50
2023-03-24T07:39:50.206Z,4.35
2023-03-24T07:42:51.858Z,5.35
2023-03-24T07:46:11.960Z,5.30
2023-03-24T07:49:19.371Z,6.03
2023-03-24T07:52:34.839Z,5.82
2023-03-24T07:55:39.916Z,6.28
2023-03-24T07:58:50.260Z,4.73
2023-03-24T08:02:00.425Z,4.97
2023-03-24T08:05:14.242Z,4.93
2023-03-24T08:08:18.544Z,5.25
2023-03-24T08:11:19.998Z,5.35
2023-03-24T08:14:21.730Z,5.43
2023-03-24T08:17:23.468Z,4.50
2023-03-24T08:20:27.243Z,4.70
2023-03-24T08:23:29.217Z,4.60
2023-03-24T08:26:31.100Z,4.68
2023-03-24T08:29:36.218Z,4.55
2023-03-24T08:32:38.185Z,3.95
2023-03-24T08:35:40.889Z,3.50
2023-03-24T08:38:42.464Z,3.55
2023-03-24T08:41:45.384Z,3.45
2023-03-24T08:44:47.132Z,3.22
2023-03-24T08:47:50.578Z,2.47
2023-03-24T08:50:52.372Z,2.53
2023-03-24T08:53:55.358Z,2.25
2023-03-24T08:56:56.834Z,2.90
2023-03-24T08:59:58.374Z,2.05
2023-03-24T09:03:01.208Z,2.10
2023-03-24T09:06:02.912Z,1.13
2023-03-24T09:09:04.465Z,2.15
2023-03-24T09:12:06.341Z,1.73
2023-03-24T09:15:10.733Z,2.10
2023-03-24T09:18:13.225Z,1.98
2023-03-24T09:21:14.881Z,1.50
2023-03-24T09:24:16.486Z,1.73
2023-03-24T09:27:18.077Z,2.00
2023-03-24T09:30:19.772Z,1.83
2023-03-24T09:33:21.332Z,1.50
2023-03-24T09:36:23.204Z,1.98
2023-03-24T09:39:24.721Z,1.80
2023-03-24T09:42:33.854Z,2.38
2023-03-24T09:45:48.687Z,1.77
2023-03-24T09:48:59.500Z,2.15
2023-03-24T09:52:05.925Z,2.30
2023-03-24T09:55:14.457Z,1.85
2023-03-24T09:58:17.882Z,1.73
2023-03-24T10:01:20.023Z,2.13
2023-03-24T10:04:26.490Z,1.60
2023-03-24T10:07:47.178Z,2.08
2023-03-24T10:10:59.301Z,1.67
2023-03-24T10:14:24.534Z,1.88
2023-03-24T10:17:41.117Z,2.33
2023-03-24T10:20:50.042Z,2.42
2023-03-24T10:24:02.398Z,2.28
2023-03-24T10:27:12.333Z,2.28
2023-03-24T10:30:19.421Z,1.77
2023-03-24T10:33:20.960Z,1.80
2023-03-24T10:36:25.025Z,1.73
2023-03-24T10:39:37.876Z,1.50
2023-03-24T10:42:45.046Z,1.30
2023-03-24T10:45:52.794Z,1.40
2023-03-24T10:49:12.762Z,1.23
2023-03-24T10:52:15.524Z,1.58
2023-03-24T10:55:20.226Z,1.42
2023-03-24T10:58:38.442Z,1.10
2023-03-24T11:01:41.404Z,1.08
2023-03-24T11:05:03.672Z,1.35
2023-03-24T11:08:31.333Z,0.70
2023-03-24T11:11:32.898Z,0.75
2023-03-24T11:14:44.891Z,0.57
2023-03-24T11:17:49.012Z,0.60
2023-03-24T11:24:01.552Z,0.50
2023-03-24T11:27:03.863Z,0.47
2023-03-24T11:30:06.074Z,0.40
2023-03-24T11:33:07.657Z,0.30
2023-03-24T11:36:35.850Z,0.60
2023-03-24T11:39:37.626Z,0.30
2023-03-24T11:42:47.628Z,0.45
2023-03-24T11:46:05.171Z,0.43
2023-03-24T11:49:10.178Z,0.60
2023-03-24T11:52:23.493Z,0.40
2023-03-24T11:55:49.557Z,0.85
2023-03-24T11:59:03.918Z,0.60
2023-03-24T12:02:08.322Z,0.60
2023-03-24T12:05:15.802Z,0.55
2023-03-24T12:08:25.125Z,0.52
2023-03-24T12:11:43.414Z,0.50
2023-03-24T12:15:27.406Z,0.55
2023-03-24T12:18:50.307Z,0.77
2023-03-24T12:22:17.977Z,0.75
2023-03-24T12:25:32.402Z,0.50
2023-03-24T12:28:45.814Z,0.60
2023-03-24T12:32:11.569Z,0.70
2023-03-24T12:35:39.551Z,0.73
2023-03-24T12:38:50.326Z,0.75
2023-03-24T12:42:19.230Z,0.80
2023-03-24T12:45:34.438Z,1.17
2023-03-24T12:49:11.900Z,0.50
2023-03-24T12:52:16.811Z,0.80
2023-03-24T12:55:26.029Z,0.90
2023-03-24T12:58:41.788Z,1.20
2023-03-24T13:01:46.788Z,1.05
2023-03-24T13:04:52.337Z,0.98
2023-03-24T13:07:59.207Z,1.50
2023-03-24T13:11:07.860Z,1.23
2023-03-24T13:14:15.392Z,1.17
2023-03-24T13:17:29.934Z,1.10
2023-03-24T13:20:54.684Z,1.38
2023-03-24T13:24:13.689Z,1.27
2023-03-24T13:27:21.800Z,0.93
2023-03-24T13:30:37.351Z,1.10
2023-03-24T13:33:41.281Z,1.75
2023-03-24T13:36:48.947Z,1.45
2023-03-24T13:39:58.771Z,1.60
2023-03-24T13:43:06.917Z,0.98
2023-03-24T13:46:13.674Z,1.40
2023-03-24T13:49:16.660Z,1.50
2023-03-24T13:52:28.054Z,1.55
2023-03-24T13:55:35.482Z,1.80
2023-03-24T13:58:49.865Z,1.20
2023-03-24T14:05:30.468Z,1.63
2023-03-24T14:08:52.706Z,1.80
2023-03-24T14:12:03.560Z,1.90
2023-03-24T14:15:21.389Z,2.05
2023-03-24T14:18:23.025Z,1.70
2023-03-24T14:21:31.564Z,1.70
2023-03-24T14:24:33.204Z,1.73
2023-03-24T14:27:42.390Z,1.45
2023-03-24T14:31:17.098Z,1.60
2023-03-24T14:34:21.282Z,1.67
2023-03-24T14:40:35.940Z,1.67
2023-03-24T14:43:40.571Z,1.90
2023-03-24T14:46:47.936Z,1.65
2023-03-24T14:49:52.764Z,1.17
2023-03-24T14:53:03.887Z,1.25
2023-03-24T14:56:11.772Z,1.48
2023-03-24T14:59:47.143Z,1.45
2023-03-24T15:02:52.277Z,1.80
2023-03-24T15:05:53.815Z,2.05
2023-03-24T15:09:07.483Z,1.55
2023-03-24T15:12:09.106Z,1.60
2023-03-24T15:15:23.120Z,1.83
2023-03-24T15:18:28.068Z,1.65
2023-03-24T15:21:33.815Z,2.65
2023-03-24T15:24:37.463Z,2.10
2023-03-24T15:27:39.597Z,1.83
2023-03-24T15:30:41.172Z,1.92
2023-03-24T15:33:43.555Z,1.92
2023-03-24T15:36:46.363Z,2.10
2023-03-24T15:39:59.216Z,2.00
2023-03-24T15:43:18.794Z,2.05
2023-03-24T15:51:11.771Z,1.80
2023-03-24T15:54:27.022Z,1.60
2023-03-24T15:57:29.240Z,2.00
2023-03-24T16:00:39.101Z,2.17
2023-03-24T16:03:43.032Z,2.13
2023-03-24T16:06:54.139Z,1.80
2023-03-24T16:10:05.232Z,1.80
2023-03-24T16:13:14.789Z,2.30
2023-03-24T16:16:16.276Z,1.98
2023-03-24T16:19:17.822Z,2.83
2023-03-24T16:22:19.441Z,2.55
2023-03-24T16:25:21.059Z,1.90
2023-03-24T16:28:27.430Z,2.08
2023-03-24T16:31:31.759Z,2.70
2023-03-24T16:34:33.246Z,2.17
2023-03-24T16:37:35.226Z,2.05
2023-03-24T16:40:45.473Z,2.20
2023-03-24T16:43:47.352Z,2.38
2023-03-24T16:46:51.873Z,2.70
2023-03-24T16:49:53.450Z,2.03
2023-03-24T16:52:55.313Z,2.40
2023-03-24T16:55:56.812Z,2.83
2023-03-24T16:58:58.406Z,2.67
2023-03-24T17:02:06.122Z,3.28
2023-03-24T17:05:28.304Z,3.00
2023-03-24T17:08:29.820Z,2.60
2023-03-24T17:11:37.165Z,2.05
2023-03-24T17:14:38.600Z,2.35
2023-03-24T17:17:40.229Z,2.10
2023-03-24T17:20:41.880Z,2.10
2023-03-24T17:23:46.739Z,1.90
2023-03-24T17:26:48.213Z,1.77
2023-03-24T17:29:49.755Z,1.77
2023-03-24T17:32:51.530Z,2.28
2023-03-24T17:35:57.139Z,2.45
